AFR21P LFPG-EDDF
Flight info
| Callsign | AFR21P |
|---|---|
| Flight time | 1h 2m |
| Altitude | 23000 |
| Route | LFPG/09R RANUX DCT VALEK DCT LIPNI UN858 LIMGO Z111 RAMOB IMCOM1D |
| Aircraft | A321/M-SDE3FGHIRWY/LB1 |
Departure
| Time | 2026-05-08 19:46 |
|---|---|
| Airport | Charles de Gaulle International Airport (LFPG) |
Arrival
| Time | 2026-05-08 20:48 |
|---|---|
| Airport | Frankfurt Main Airport (EDDF) |
| Time | Latitude | Longitude | Altitude | Speed | Heading |
|---|---|---|---|---|---|
| 2026-05-08 19:15 | 49.00199 | 2.56667 | 358 ft | 0 kts | 3° |
| 2026-05-08 19:29 | 49.00182 | 2.56665 | 359 ft | 4 kts | 360° |
| 2026-05-08 19:29 | 49.00156 | 2.56665 | 354 ft | 4 kts | 354° |
| 2026-05-08 19:30 | 49.00131 | 2.56675 | 362 ft | 4 kts | 323° |
| 2026-05-08 19:30 | 49.00118 | 2.56702 | 361 ft | 3 kts | 267° |
| 2026-05-08 19:30 | 49.00118 | 2.56706 | 361 ft | 2 kts | 265° |
| 2026-05-08 19:30 | 49.00118 | 2.56707 | 361 ft | 0 kts | 265° |
| 2026-05-08 19:32 | 49.00118 | 2.56703 | 361 ft | 3 kts | 265° |
| 2026-05-08 19:33 | 49.00112 | 2.56596 | 354 ft | 18 kts | 265° |
| 2026-05-08 19:33 | 49.00100 | 2.56358 | 360 ft | 24 kts | 264° |
| 2026-05-08 19:33 | 49.00086 | 2.56110 | 357 ft | 23 kts | 265° |
| 2026-05-08 19:33 | 49.00076 | 2.55928 | 354 ft | 12 kts | 267° |
| 2026-05-08 19:34 | 49.00074 | 2.55856 | 361 ft | 0 kts | 268° |
| 2026-05-08 19:34 | 49.00074 | 2.55855 | 361 ft | 1 kts | 268° |
| 2026-05-08 19:35 | 49.00074 | 2.55835 | 354 ft | 0 kts | 268° |
| 2026-05-08 19:35 | 49.00073 | 2.55821 | 354 ft | 7 kts | 268° |
| 2026-05-08 19:35 | 49.00076 | 2.55677 | 360 ft | 18 kts | 283° |
| 2026-05-08 19:35 | 49.00171 | 2.55591 | 358 ft | 16 kts | 344° |
| 2026-05-08 19:36 | 49.00276 | 2.55545 | 356 ft | 16 kts | 344° |
| 2026-05-08 19:36 | 49.00388 | 2.55496 | 362 ft | 17 kts | 344° |
| 2026-05-08 19:36 | 49.00501 | 2.55449 | 354 ft | 16 kts | 345° |
| 2026-05-08 19:36 | 49.00602 | 2.55403 | 354 ft | 14 kts | 343° |
| 2026-05-08 19:37 | 49.00693 | 2.55365 | 354 ft | 13 kts | 343° |
| 2026-05-08 19:37 | 49.00779 | 2.55327 | 360 ft | 13 kts | 344° |
| 2026-05-08 19:37 | 49.00862 | 2.55292 | 354 ft | 12 kts | 345° |
| 2026-05-08 19:37 | 49.00941 | 2.55259 | 359 ft | 11 kts | 345° |
| 2026-05-08 19:38 | 49.01037 | 2.55216 | 357 ft | 18 kts | 344° |
| 2026-05-08 19:38 | 49.01161 | 2.55163 | 360 ft | 18 kts | 348° |
| 2026-05-08 19:38 | 49.01254 | 2.55105 | 361 ft | 7 kts | 290° |
| 2026-05-08 19:38 | 49.01251 | 2.55032 | 354 ft | 6 kts | 276° |
| 2026-05-08 19:39 | 49.01270 | 2.54985 | 358 ft | 5 kts | 321° |
| 2026-05-08 19:39 | 49.01345 | 2.54941 | 357 ft | 20 kts | 346° |
| 2026-05-08 19:39 | 49.01490 | 2.54898 | 363 ft | 21 kts | 355° |
| 2026-05-08 19:39 | 49.01645 | 2.54878 | 354 ft | 26 kts | 355° |
| 2026-05-08 19:40 | 49.01819 | 2.54853 | 357 ft | 21 kts | 345° |
| 2026-05-08 19:40 | 49.01840 | 2.54734 | 354 ft | 11 kts | 268° |
| 2026-05-08 19:40 | 49.01833 | 2.54569 | 355 ft | 17 kts | 265° |
| 2026-05-08 19:40 | 49.01823 | 2.54365 | 354 ft | 23 kts | 265° |
| 2026-05-08 19:41 | 49.01809 | 2.54094 | 354 ft | 29 kts | 265° |
| 2026-05-08 19:41 | 49.01792 | 2.53783 | 360 ft | 30 kts | 265° |
| 2026-05-08 19:41 | 49.01776 | 2.53471 | 360 ft | 29 kts | 264° |
| 2026-05-08 19:41 | 49.01757 | 2.53165 | 362 ft | 29 kts | 265° |
| 2026-05-08 19:42 | 49.01743 | 2.52880 | 362 ft | 23 kts | 265° |
| 2026-05-08 19:42 | 49.01730 | 2.52635 | 362 ft | 23 kts | 265° |
| 2026-05-08 19:42 | 49.01717 | 2.52395 | 361 ft | 22 kts | 266° |
| 2026-05-08 19:42 | 49.01715 | 2.52177 | 359 ft | 18 kts | 295° |
| 2026-05-08 19:43 | 49.01780 | 2.52141 | 354 ft | 13 kts | 0° |
| 2026-05-08 19:43 | 49.01875 | 2.52128 | 354 ft | 10 kts | 358° |
| 2026-05-08 19:43 | 49.01970 | 2.52112 | 356 ft | 18 kts | 356° |
| 2026-05-08 19:43 | 49.02000 | 2.52110 | 356 ft | 0 kts | 356° |
| 2026-05-08 19:44 | 49.02039 | 2.52107 | 353 ft | 13 kts | 0° |
| 2026-05-08 19:44 | 49.02109 | 2.52186 | 355 ft | 13 kts | 79° |
| 2026-05-08 19:45 | 49.02120 | 2.52374 | 360 ft | 37 kts | 85° |
| 2026-05-08 19:45 | 49.02163 | 2.53121 | 364 ft | 102 kts | 85° |
| 2026-05-08 19:45 | 49.02238 | 2.54480 | 355 ft | 152 kts | 85° |
| 2026-05-08 19:45 | 49.02329 | 2.56244 | 591 ft | 172 kts | 85° |
| 2026-05-08 19:46 | 49.02376 | 2.57452 | 999 ft | 173 kts | 85° |
| 2026-05-08 19:46 | 49.02498 | 2.59859 | 1783 ft | 172 kts | 84° |
| 2026-05-08 19:46 | 49.02709 | 2.63684 | 2432 ft | 200 kts | 85° |
| 2026-05-08 19:47 | 49.02829 | 2.65914 | 2569 ft | 223 kts | 85° |
| 2026-05-08 19:47 | 49.02915 | 2.67535 | 2712 ft | 240 kts | 85° |
| 2026-05-08 19:47 | 49.03053 | 2.70157 | 3263 ft | 253 kts | 85° |
| 2026-05-08 19:47 | 49.03196 | 2.72849 | 4023 ft | 257 kts | 85° |
| 2026-05-08 19:48 | 49.03335 | 2.75595 | 4811 ft | 262 kts | 86° |
| 2026-05-08 19:48 | 49.03518 | 2.79301 | 5789 ft | 269 kts | 86° |
| 2026-05-08 19:48 | 49.03656 | 2.82176 | 6509 ft | 274 kts | 86° |
| 2026-05-08 19:48 | 49.03793 | 2.85095 | 7198 ft | 279 kts | 86° |
| 2026-05-08 19:49 | 49.03886 | 2.87101 | 7671 ft | 282 kts | 87° |
| 2026-05-08 19:49 | 49.04024 | 2.90069 | 8355 ft | 287 kts | 87° |
| 2026-05-08 19:49 | 49.04166 | 2.93134 | 9046 ft | 292 kts | 86° |
| 2026-05-08 19:49 | 49.04353 | 2.96238 | 9743 ft | 297 kts | 85° |
| 2026-05-08 19:50 | 49.04622 | 2.99886 | 10373 ft | 310 kts | 84° |
| 2026-05-08 19:50 | 49.04796 | 3.02134 | 10474 ft | 323 kts | 84° |
| 2026-05-08 19:50 | 49.05067 | 3.05624 | 10604 ft | 340 kts | 84° |
| 2026-05-08 19:50 | 49.05350 | 3.09269 | 10729 ft | 360 kts | 84° |
| 2026-05-08 19:51 | 49.05647 | 3.13154 | 10946 ft | 376 kts | 84° |
| 2026-05-08 19:51 | 49.05946 | 3.17152 | 11458 ft | 382 kts | 84° |
| 2026-05-08 19:51 | 49.06242 | 3.21188 | 12057 ft | 385 kts | 84° |
| 2026-05-08 19:51 | 49.06535 | 3.25253 | 12653 ft | 388 kts | 84° |
| 2026-05-08 19:52 | 49.06823 | 3.29366 | 13248 ft | 390 kts | 84° |
| 2026-05-08 19:52 | 49.07109 | 3.33483 | 13827 ft | 393 kts | 84° |
| 2026-05-08 19:52 | 49.07697 | 3.37575 | 14311 ft | 396 kts | 73° |
| 2026-05-08 19:52 | 49.08470 | 3.41563 | 14824 ft | 398 kts | 73° |
| 2026-05-08 19:53 | 49.09262 | 3.45624 | 15330 ft | 400 kts | 73° |
| 2026-05-08 19:53 | 49.10055 | 3.49706 | 15818 ft | 402 kts | 73° |
| 2026-05-08 19:53 | 49.10847 | 3.53810 | 16293 ft | 404 kts | 73° |
| 2026-05-08 19:53 | 49.11643 | 3.57945 | 16726 ft | 407 kts | 73° |
| 2026-05-08 19:54 | 49.12440 | 3.62103 | 17163 ft | 409 kts | 73° |
| 2026-05-08 19:54 | 49.13236 | 3.66280 | 17605 ft | 411 kts | 73° |
| 2026-05-08 19:54 | 49.14037 | 3.70487 | 18050 ft | 413 kts | 73° |
| 2026-05-08 19:54 | 49.14841 | 3.74710 | 18455 ft | 415 kts | 73° |
| 2026-05-08 19:55 | 49.15636 | 3.78901 | 18803 ft | 417 kts | 73° |
| 2026-05-08 19:55 | 49.16444 | 3.83169 | 19165 ft | 420 kts | 73° |
| 2026-05-08 19:55 | 49.17258 | 3.87468 | 19532 ft | 422 kts | 73° |
| 2026-05-08 19:55 | 49.18071 | 3.91776 | 19898 ft | 424 kts | 72° |
| 2026-05-08 19:56 | 49.18888 | 3.96132 | 20269 ft | 427 kts | 72° |
| 2026-05-08 19:56 | 49.19706 | 4.00500 | 20635 ft | 429 kts | 72° |
| 2026-05-08 19:56 | 49.20528 | 4.04897 | 21016 ft | 432 kts | 72° |
| 2026-05-08 19:56 | 49.21358 | 4.09324 | 21404 ft | 434 kts | 72° |
| 2026-05-08 19:57 | 49.22189 | 4.13766 | 21812 ft | 436 kts | 71° |
| 2026-05-08 19:57 | 49.23028 | 4.18258 | 22209 ft | 439 kts | 72° |
| 2026-05-08 19:57 | 49.23861 | 4.22731 | 22696 ft | 438 kts | 72° |
| 2026-05-08 19:57 | 49.24683 | 4.27169 | 23036 ft | 439 kts | 72° |
| 2026-05-08 19:58 | 49.25517 | 4.31687 | 23086 ft | 445 kts | 72° |
| 2026-05-08 19:58 | 49.26360 | 4.36270 | 23087 ft | 448 kts | 72° |
| 2026-05-08 19:58 | 49.27203 | 4.40863 | 23089 ft | 449 kts | 72° |
| 2026-05-08 19:58 | 49.28046 | 4.45470 | 23092 ft | 448 kts | 72° |
| 2026-05-08 19:59 | 49.28884 | 4.50057 | 23089 ft | 447 kts | 72° |
| 2026-05-08 19:59 | 49.29718 | 4.54642 | 23090 ft | 447 kts | 72° |
| 2026-05-08 19:59 | 49.30555 | 4.59240 | 23089 ft | 447 kts | 72° |
| 2026-05-08 19:59 | 49.31389 | 4.63830 | 23089 ft | 447 kts | 73° |
| 2026-05-08 20:00 | 49.32218 | 4.68408 | 23088 ft | 447 kts | 72° |
| 2026-05-08 20:00 | 49.33106 | 4.72915 | 23086 ft | 445 kts | 66° |
| 2026-05-08 20:00 | 49.34317 | 4.77275 | 23090 ft | 445 kts | 65° |
| 2026-05-08 20:00 | 49.35538 | 4.81631 | 23085 ft | 445 kts | 65° |
| 2026-05-08 20:01 | 49.36752 | 4.85986 | 23083 ft | 445 kts | 65° |
| 2026-05-08 20:01 | 49.37969 | 4.90362 | 23082 ft | 445 kts | 65° |
| 2026-05-08 20:01 | 49.39180 | 4.94717 | 23087 ft | 445 kts | 66° |
| 2026-05-08 20:01 | 49.40396 | 4.99088 | 23087 ft | 445 kts | 66° |
| 2026-05-08 20:02 | 49.41619 | 5.03471 | 23084 ft | 445 kts | 66° |
| 2026-05-08 20:02 | 49.42838 | 5.07845 | 23086 ft | 445 kts | 66° |
| 2026-05-08 20:02 | 49.44038 | 5.12167 | 23087 ft | 445 kts | 66° |
| 2026-05-08 20:02 | 49.45246 | 5.16545 | 23089 ft | 445 kts | 66° |
| 2026-05-08 20:03 | 49.46450 | 5.20927 | 23093 ft | 445 kts | 66° |
| 2026-05-08 20:03 | 49.47656 | 5.25315 | 23089 ft | 445 kts | 66° |
| 2026-05-08 20:03 | 49.48862 | 5.29701 | 23090 ft | 445 kts | 66° |
| 2026-05-08 20:03 | 49.50066 | 5.34089 | 23093 ft | 445 kts | 66° |
| 2026-05-08 20:04 | 49.51267 | 5.38473 | 23090 ft | 445 kts | 66° |
| 2026-05-08 20:04 | 49.52469 | 5.42868 | 23084 ft | 446 kts | 66° |
| 2026-05-08 20:04 | 49.53664 | 5.47237 | 23085 ft | 432 kts | 66° |
| 2026-05-08 20:04 | 49.54813 | 5.51454 | 23107 ft | 424 kts | 67° |
| 2026-05-08 20:05 | 49.55947 | 5.55623 | 23100 ft | 421 kts | 66° |
| 2026-05-08 20:05 | 49.57079 | 5.59781 | 23104 ft | 421 kts | 67° |
| 2026-05-08 20:05 | 49.58192 | 5.63885 | 23102 ft | 421 kts | 67° |
| 2026-05-08 20:05 | 49.59316 | 5.68044 | 23103 ft | 420 kts | 67° |
| 2026-05-08 20:06 | 49.60438 | 5.72206 | 23107 ft | 420 kts | 67° |
| 2026-05-08 20:06 | 49.61559 | 5.76371 | 23107 ft | 420 kts | 66° |
| 2026-05-08 20:06 | 49.62674 | 5.80528 | 23108 ft | 420 kts | 67° |
| 2026-05-08 20:06 | 49.63788 | 5.84691 | 23109 ft | 420 kts | 66° |
| 2026-05-08 20:07 | 49.64905 | 5.88859 | 23107 ft | 420 kts | 67° |
| 2026-05-08 20:07 | 49.66021 | 5.93033 | 23104 ft | 421 kts | 67° |
| 2026-05-08 20:07 | 49.67139 | 5.97218 | 23108 ft | 428 kts | 67° |
| 2026-05-08 20:07 | 49.68275 | 6.01470 | 23112 ft | 440 kts | 67° |
| 2026-05-08 20:08 | 49.69451 | 6.05880 | 23112 ft | 448 kts | 67° |
| 2026-05-08 20:08 | 49.70635 | 6.10333 | 23112 ft | 450 kts | 67° |
| 2026-05-08 20:08 | 49.71824 | 6.14819 | 23112 ft | 450 kts | 67° |
| 2026-05-08 20:08 | 49.73007 | 6.19293 | 23112 ft | 450 kts | 68° |
| 2026-05-08 20:09 | 49.74189 | 6.23775 | 23111 ft | 450 kts | 68° |
| 2026-05-08 20:09 | 49.75366 | 6.28256 | 23111 ft | 450 kts | 68° |
| 2026-05-08 20:09 | 49.76549 | 6.32752 | 23110 ft | 450 kts | 68° |
| 2026-05-08 20:09 | 49.77715 | 6.37183 | 23109 ft | 452 kts | 68° |
| 2026-05-08 20:10 | 49.78899 | 6.41686 | 23112 ft | 452 kts | 68° |
| 2026-05-08 20:10 | 49.80079 | 6.46195 | 23114 ft | 453 kts | 68° |
| 2026-05-08 20:10 | 49.81262 | 6.50724 | 23116 ft | 453 kts | 68° |
| 2026-05-08 20:10 | 49.82440 | 6.55240 | 23118 ft | 452 kts | 68° |
| 2026-05-08 20:11 | 49.83584 | 6.59636 | 23105 ft | 425 kts | 68° |
| 2026-05-08 20:11 | 49.84653 | 6.63754 | 23116 ft | 403 kts | 68° |
| 2026-05-08 20:11 | 49.85688 | 6.67756 | 23118 ft | 400 kts | 68° |
| 2026-05-08 20:11 | 49.86706 | 6.71698 | 23116 ft | 398 kts | 68° |
| 2026-05-08 20:12 | 49.87732 | 6.75676 | 23120 ft | 397 kts | 68° |
| 2026-05-08 20:12 | 49.88753 | 6.79646 | 22959 ft | 394 kts | 68° |
| 2026-05-08 20:12 | 49.89762 | 6.83579 | 22290 ft | 391 kts | 68° |
| 2026-05-08 20:12 | 49.90764 | 6.87485 | 21653 ft | 388 kts | 68° |
| 2026-05-08 20:13 | 49.91756 | 6.91358 | 21053 ft | 385 kts | 68° |
| 2026-05-08 20:13 | 49.92739 | 6.95204 | 20473 ft | 382 kts | 68° |
| 2026-05-08 20:13 | 49.93715 | 6.99026 | 19935 ft | 379 kts | 69° |
| 2026-05-08 20:13 | 49.94680 | 7.02813 | 19398 ft | 376 kts | 69° |
| 2026-05-08 20:14 | 49.95626 | 7.06530 | 18880 ft | 373 kts | 69° |
| 2026-05-08 20:14 | 49.96574 | 7.10262 | 18361 ft | 370 kts | 69° |
| 2026-05-08 20:14 | 49.97512 | 7.13961 | 17795 ft | 368 kts | 69° |
| 2026-05-08 20:14 | 49.98444 | 7.17645 | 17262 ft | 364 kts | 69° |
| 2026-05-08 20:15 | 49.99363 | 7.21280 | 16882 ft | 357 kts | 69° |
| 2026-05-08 20:15 | 50.00254 | 7.24802 | 16749 ft | 343 kts | 69° |
| 2026-05-08 20:15 | 50.01110 | 7.28185 | 16607 ft | 330 kts | 69° |
| 2026-05-08 20:15 | 50.01937 | 7.31464 | 16277 ft | 324 kts | 69° |
| 2026-05-08 20:16 | 50.02753 | 7.34713 | 15876 ft | 320 kts | 69° |
| 2026-05-08 20:16 | 50.03546 | 7.37880 | 15728 ft | 308 kts | 69° |
| 2026-05-08 20:16 | 50.04308 | 7.40923 | 15611 ft | 297 kts | 69° |
| 2026-05-08 20:16 | 50.05036 | 7.43827 | 15457 ft | 287 kts | 69° |
| 2026-05-08 20:17 | 50.05753 | 7.46687 | 15174 ft | 282 kts | 69° |
| 2026-05-08 20:17 | 50.06461 | 7.49526 | 14840 ft | 280 kts | 69° |
| 2026-05-08 20:17 | 50.07160 | 7.52341 | 14484 ft | 278 kts | 70° |
| 2026-05-08 20:17 | 50.07853 | 7.55140 | 14143 ft | 277 kts | 70° |
| 2026-05-08 20:18 | 50.08545 | 7.57925 | 13805 ft | 275 kts | 70° |
| 2026-05-08 20:18 | 50.09234 | 7.60702 | 13414 ft | 274 kts | 70° |
| 2026-05-08 20:18 | 50.09824 | 7.63505 | 13031 ft | 272 kts | 77° |
| 2026-05-08 20:18 | 50.10174 | 7.66392 | 12654 ft | 270 kts | 84° |
| 2026-05-08 20:19 | 50.10292 | 7.69260 | 12289 ft | 268 kts | 91° |
| 2026-05-08 20:19 | 50.10184 | 7.72142 | 11915 ft | 266 kts | 98° |
| 2026-05-08 20:19 | 50.09848 | 7.74971 | 11535 ft | 265 kts | 106° |
| 2026-05-08 20:19 | 50.09331 | 7.77702 | 11195 ft | 263 kts | 108° |
| 2026-05-08 20:20 | 50.08829 | 7.80430 | 11115 ft | 263 kts | 104° |
| 2026-05-08 20:20 | 50.08544 | 7.83252 | 11123 ft | 266 kts | 95° |
| 2026-05-08 20:20 | 50.08522 | 7.86133 | 11130 ft | 267 kts | 87° |
| 2026-05-08 20:20 | 50.08760 | 7.88989 | 11128 ft | 267 kts | 79° |
| 2026-05-08 20:21 | 50.09254 | 7.91790 | 11129 ft | 268 kts | 70° |
| 2026-05-08 20:21 | 50.09911 | 7.94465 | 11132 ft | 268 kts | 69° |
| 2026-05-08 20:21 | 50.10581 | 7.97179 | 11126 ft | 268 kts | 69° |
| 2026-05-08 20:21 | 50.11246 | 7.99894 | 11131 ft | 268 kts | 69° |
| 2026-05-08 20:22 | 50.11908 | 8.02605 | 11129 ft | 268 kts | 70° |
| 2026-05-08 20:22 | 50.12571 | 8.05326 | 11129 ft | 268 kts | 70° |
| 2026-05-08 20:22 | 50.13233 | 8.08042 | 11130 ft | 268 kts | 70° |
| 2026-05-08 20:22 | 50.13896 | 8.10760 | 11136 ft | 268 kts | 69° |
| 2026-05-08 20:23 | 50.14559 | 8.13485 | 11131 ft | 269 kts | 69° |
| 2026-05-08 20:23 | 50.15220 | 8.16221 | 11130 ft | 270 kts | 70° |
| 2026-05-08 20:23 | 50.15880 | 8.18953 | 11128 ft | 270 kts | 70° |
| 2026-05-08 20:23 | 50.16539 | 8.21688 | 11126 ft | 270 kts | 70° |
| 2026-05-08 20:24 | 50.17200 | 8.24430 | 11125 ft | 270 kts | 70° |
| 2026-05-08 20:24 | 50.17859 | 8.27165 | 11130 ft | 269 kts | 69° |
| 2026-05-08 20:24 | 50.18512 | 8.29863 | 11125 ft | 269 kts | 69° |
| 2026-05-08 20:24 | 50.19164 | 8.32602 | 11075 ft | 268 kts | 73° |
| 2026-05-08 20:25 | 50.19416 | 8.35446 | 10706 ft | 265 kts | 89° |
| 2026-05-08 20:25 | 50.19700 | 8.38275 | 10331 ft | 265 kts | 72° |
| 2026-05-08 20:25 | 50.20321 | 8.40982 | 9945 ft | 265 kts | 68° |
| 2026-05-08 20:25 | 50.20998 | 8.43645 | 9567 ft | 264 kts | 68° |
| 2026-05-08 20:26 | 50.21680 | 8.46293 | 9196 ft | 261 kts | 68° |
| 2026-05-08 20:26 | 50.22340 | 8.48931 | 8843 ft | 259 kts | 69° |
| 2026-05-08 20:26 | 50.22972 | 8.51505 | 8495 ft | 257 kts | 69° |
| 2026-05-08 20:26 | 50.23600 | 8.54081 | 8160 ft | 255 kts | 69° |
| 2026-05-08 20:27 | 50.24221 | 8.56668 | 7833 ft | 253 kts | 72° |
| 2026-05-08 20:27 | 50.24365 | 8.59357 | 7495 ft | 249 kts | 103° |
| 2026-05-08 20:27 | 50.23630 | 8.61745 | 7186 ft | 243 kts | 135° |
| 2026-05-08 20:27 | 50.22320 | 8.63394 | 7134 ft | 243 kts | 155° |
| 2026-05-08 20:28 | 50.20707 | 8.64075 | 7136 ft | 242 kts | 181° |
| 2026-05-08 20:28 | 50.19087 | 8.63550 | 7138 ft | 239 kts | 208° |
| 2026-05-08 20:28 | 50.17803 | 8.61953 | 7135 ft | 237 kts | 234° |
| 2026-05-08 20:28 | 50.16953 | 8.59758 | 7138 ft | 237 kts | 241° |
| 2026-05-08 20:29 | 50.16151 | 8.57548 | 7136 ft | 238 kts | 241° |
| 2026-05-08 20:29 | 50.15325 | 8.55281 | 7135 ft | 238 kts | 241° |
| 2026-05-08 20:29 | 50.14516 | 8.53072 | 7136 ft | 238 kts | 241° |
| 2026-05-08 20:29 | 50.13695 | 8.50830 | 7137 ft | 238 kts | 241° |
| 2026-05-08 20:30 | 50.12877 | 8.48594 | 7135 ft | 238 kts | 241° |
| 2026-05-08 20:30 | 50.12055 | 8.46357 | 7136 ft | 237 kts | 241° |
| 2026-05-08 20:30 | 50.11293 | 8.44079 | 7136 ft | 237 kts | 246° |
| 2026-05-08 20:30 | 50.10671 | 8.41704 | 7127 ft | 237 kts | 250° |
| 2026-05-08 20:31 | 50.10096 | 8.39299 | 7025 ft | 235 kts | 250° |
| 2026-05-08 20:31 | 50.09520 | 8.36916 | 6675 ft | 235 kts | 250° |
| 2026-05-08 20:31 | 50.08941 | 8.34540 | 6338 ft | 234 kts | 250° |
| 2026-05-08 20:31 | 50.08367 | 8.32174 | 5977 ft | 234 kts | 250° |
| 2026-05-08 20:32 | 50.07792 | 8.29803 | 5617 ft | 234 kts | 250° |
| 2026-05-08 20:32 | 50.07225 | 8.27464 | 5268 ft | 234 kts | 249° |
| 2026-05-08 20:32 | 50.06651 | 8.25106 | 5116 ft | 234 kts | 249° |
| 2026-05-08 20:32 | 50.06072 | 8.22728 | 5126 ft | 237 kts | 249° |
| 2026-05-08 20:33 | 50.05486 | 8.20327 | 5129 ft | 238 kts | 249° |
| 2026-05-08 20:33 | 50.04898 | 8.17917 | 5122 ft | 238 kts | 249° |
| 2026-05-08 20:33 | 50.04312 | 8.15521 | 5123 ft | 238 kts | 249° |
| 2026-05-08 20:33 | 50.03723 | 8.13113 | 5127 ft | 238 kts | 249° |
| 2026-05-08 20:34 | 50.03135 | 8.10707 | 5131 ft | 238 kts | 249° |
| 2026-05-08 20:34 | 50.02539 | 8.08304 | 5130 ft | 238 kts | 249° |
| 2026-05-08 20:34 | 50.01344 | 8.03504 | 5129 ft | 238 kts | 249° |
| 2026-05-08 20:35 | 50.00746 | 8.01108 | 5129 ft | 238 kts | 249° |
| 2026-05-08 20:35 | 50.00154 | 7.98738 | 5127 ft | 238 kts | 249° |
| 2026-05-08 20:35 | 49.99556 | 7.96345 | 5119 ft | 238 kts | 249° |
| 2026-05-08 20:35 | 49.98957 | 7.93951 | 5121 ft | 238 kts | 249° |
| 2026-05-08 20:36 | 49.98358 | 7.91557 | 5128 ft | 238 kts | 249° |
| 2026-05-08 20:36 | 49.97759 | 7.89159 | 5121 ft | 238 kts | 249° |
| 2026-05-08 20:36 | 49.97159 | 7.86761 | 5124 ft | 238 kts | 249° |
| 2026-05-08 20:36 | 49.96584 | 7.84355 | 5128 ft | 238 kts | 250° |
| 2026-05-08 20:37 | 49.96040 | 7.81923 | 5108 ft | 239 kts | 251° |
| 2026-05-08 20:37 | 49.95297 | 7.79647 | 5042 ft | 237 kts | 230° |
| 2026-05-08 20:37 | 49.94072 | 7.78013 | 5023 ft | 236 kts | 207° |
| 2026-05-08 20:37 | 49.92521 | 7.77241 | 5021 ft | 236 kts | 184° |
| 2026-05-08 20:38 | 49.90906 | 7.77456 | 5021 ft | 234 kts | 161° |
| 2026-05-08 20:38 | 49.89471 | 7.78614 | 5022 ft | 233 kts | 139° |
| 2026-05-08 20:38 | 49.88436 | 7.80519 | 5018 ft | 232 kts | 117° |
| 2026-05-08 20:38 | 49.87945 | 7.82896 | 5017 ft | 232 kts | 95° |
| 2026-05-08 20:39 | 49.88083 | 7.85369 | 5020 ft | 232 kts | 72° |
| 2026-05-08 20:39 | 49.88645 | 7.87722 | 5016 ft | 233 kts | 69° |
| 2026-05-08 20:39 | 49.89201 | 7.89985 | 5022 ft | 216 kts | 69° |
| 2026-05-08 20:39 | 49.89724 | 7.92105 | 5024 ft | 212 kts | 69° |
| 2026-05-08 20:40 | 49.90255 | 7.94272 | 5019 ft | 212 kts | 70° |
| 2026-05-08 20:40 | 49.90761 | 7.96381 | 5022 ft | 212 kts | 70° |
| 2026-05-08 20:40 | 49.91282 | 7.98518 | 5021 ft | 212 kts | 69° |
| 2026-05-08 20:40 | 49.91806 | 8.00655 | 5021 ft | 212 kts | 69° |
| 2026-05-08 20:41 | 49.92326 | 8.02778 | 5017 ft | 205 kts | 69° |
| 2026-05-08 20:41 | 49.92809 | 8.04751 | 5017 ft | 187 kts | 69° |
| 2026-05-08 20:41 | 49.93263 | 8.06603 | 5029 ft | 182 kts | 69° |
| 2026-05-08 20:41 | 49.93710 | 8.08433 | 5026 ft | 181 kts | 69° |
| 2026-05-08 20:42 | 49.94154 | 8.10251 | 5025 ft | 180 kts | 69° |
| 2026-05-08 20:42 | 49.94598 | 8.12069 | 5023 ft | 180 kts | 69° |
| 2026-05-08 20:42 | 49.95043 | 8.13893 | 5013 ft | 181 kts | 69° |
| 2026-05-08 20:42 | 49.95481 | 8.15692 | 4866 ft | 180 kts | 69° |
| 2026-05-08 20:43 | 49.95924 | 8.17510 | 4647 ft | 179 kts | 70° |
| 2026-05-08 20:43 | 49.96362 | 8.19308 | 4410 ft | 177 kts | 70° |
| 2026-05-08 20:43 | 49.96797 | 8.21097 | 4168 ft | 176 kts | 70° |
| 2026-05-08 20:43 | 49.97228 | 8.22872 | 3934 ft | 175 kts | 70° |
| 2026-05-08 20:44 | 49.97655 | 8.24632 | 3701 ft | 174 kts | 70° |
| 2026-05-08 20:44 | 49.98079 | 8.26379 | 3475 ft | 172 kts | 70° |
| 2026-05-08 20:44 | 49.98494 | 8.28089 | 3242 ft | 171 kts | 70° |
| 2026-05-08 20:44 | 49.98916 | 8.29832 | 3012 ft | 170 kts | 71° |
| 2026-05-08 20:45 | 49.99319 | 8.31498 | 2795 ft | 164 kts | 70° |
| 2026-05-08 20:45 | 49.99587 | 8.32606 | 2645 ft | 160 kts | 71° |
| 2026-05-08 20:45 | 50.00098 | 8.34720 | 2361 ft | 157 kts | 70° |
| 2026-05-08 20:45 | 50.00482 | 8.36311 | 2153 ft | 159 kts | 71° |
| 2026-05-08 20:46 | 50.00876 | 8.37945 | 1922 ft | 163 kts | 71° |
| 2026-05-08 20:46 | 50.01275 | 8.39599 | 1711 ft | 164 kts | 70° |
| 2026-05-08 20:46 | 50.01675 | 8.41259 | 1481 ft | 164 kts | 70° |
| 2026-05-08 20:46 | 50.02076 | 8.42927 | 1259 ft | 165 kts | 69° |
| 2026-05-08 20:47 | 50.02476 | 8.44588 | 1044 ft | 166 kts | 68° |
| 2026-05-08 20:47 | 50.02880 | 8.46268 | 822 ft | 162 kts | 68° |
| 2026-05-08 20:47 | 50.03252 | 8.47824 | 611 ft | 147 kts | 67° |
| 2026-05-08 20:47 | 50.03598 | 8.49264 | 409 ft | 140 kts | 67° |
| 2026-05-08 20:48 | 50.03943 | 8.50646 | 323 ft | 133 kts | 68° |
| 2026-05-08 20:48 | 50.04195 | 8.51738 | 334 ft | 80 kts | 69° |
| 2026-05-08 20:48 | 50.04332 | 8.52301 | 348 ft | 31 kts | 71° |
| 2026-05-08 20:48 | 50.04396 | 8.52671 | 352 ft | 46 kts | 78° |
| 2026-05-08 20:49 | 50.04372 | 8.53011 | 357 ft | 13 kts | 107° |
| 2026-05-08 20:49 | 50.04354 | 8.53116 | 362 ft | 5 kts | 103° |
| 2026-05-08 20:49 | 50.04351 | 8.53174 | 358 ft | 13 kts | 94° |
| 2026-05-08 20:49 | 50.04360 | 8.53343 | 372 ft | 15 kts | 72° |
| 2026-05-08 20:50 | 50.04387 | 8.53456 | 374 ft | 8 kts | 71° |
| 2026-05-08 20:50 | 50.04395 | 8.53520 | 375 ft | 5 kts | 82° |
| 2026-05-08 20:50 | 50.04398 | 8.53560 | 375 ft | 4 kts | 84° |
| 2026-05-08 20:50 | 50.04401 | 8.53602 | 375 ft | 6 kts | 84° |
| 2026-05-08 20:51 | 50.04411 | 8.53760 | 375 ft | 22 kts | 84° |
| 2026-05-08 20:51 | 50.04429 | 8.54027 | 375 ft | 26 kts | 84° |
| 2026-05-08 20:51 | 50.04447 | 8.54305 | 374 ft | 26 kts | 84° |
| 2026-05-08 20:51 | 50.04428 | 8.54595 | 367 ft | 29 kts | 115° |
| 2026-05-08 20:52 | 50.04328 | 8.54758 | 358 ft | 6 kts | 152° |
| 2026-05-08 20:52 | 50.04309 | 8.54773 | 358 ft | 9 kts | 155° |
| 2026-05-08 20:52 | 50.04217 | 8.54826 | 356 ft | 16 kts | 161° |
| 2026-05-08 20:52 | 50.04111 | 8.54885 | 353 ft | 17 kts | 159° |
| 2026-05-08 20:53 | 50.04016 | 8.54983 | 358 ft | 12 kts | 92° |
| 2026-05-08 20:53 | 50.04040 | 8.55111 | 357 ft | 13 kts | 68° |
| 2026-05-08 20:53 | 50.04079 | 8.55272 | 355 ft | 18 kts | 69° |
| 2026-05-08 20:53 | 50.04126 | 8.55464 | 355 ft | 19 kts | 69° |
| 2026-05-08 20:54 | 50.04172 | 8.55663 | 359 ft | 20 kts | 70° |
| 2026-05-08 20:54 | 50.04221 | 8.55867 | 360 ft | 20 kts | 69° |
| 2026-05-08 20:54 | 50.04269 | 8.56064 | 359 ft | 19 kts | 70° |
| 2026-05-08 20:54 | 50.04310 | 8.56237 | 361 ft | 14 kts | 69° |
| 2026-05-08 20:55 | 50.04335 | 8.56338 | 359 ft | 7 kts | 69° |
| 2026-05-08 20:55 | 50.04350 | 8.56406 | 359 ft | 6 kts | 70° |
| 2026-05-08 20:55 | 50.04367 | 8.56478 | 361 ft | 7 kts | 70° |
| 2026-05-08 20:55 | 50.04387 | 8.56560 | 362 ft | 9 kts | 69° |
| 2026-05-08 20:56 | 50.04407 | 8.56646 | 362 ft | 8 kts | 70° |
| 2026-05-08 20:56 | 50.04427 | 8.56731 | 359 ft | 12 kts | 70° |
| 2026-05-08 20:56 | 50.04460 | 8.56862 | 363 ft | 13 kts | 69° |
| 2026-05-08 20:56 | 50.04492 | 8.56998 | 360 ft | 15 kts | 70° |
| 2026-05-08 20:57 | 50.04536 | 8.57185 | 361 ft | 20 kts | 69° |
| 2026-05-08 20:57 | 50.04591 | 8.57415 | 362 ft | 28 kts | 71° |
| 2026-05-08 20:57 | 50.04657 | 8.57694 | 365 ft | 27 kts | 69° |
| 2026-05-08 20:57 | 50.04741 | 8.57941 | 360 ft | 24 kts | 45° |
| 2026-05-08 20:58 | 50.04830 | 8.58155 | 359 ft | 23 kts | 71° |
| 2026-05-08 20:58 | 50.04883 | 8.58388 | 362 ft | 21 kts | 70° |
| 2026-05-08 20:58 | 50.04930 | 8.58604 | 360 ft | 21 kts | 83° |
| 2026-05-08 20:58 | 50.04877 | 8.58689 | 365 ft | 7 kts | 166° |
| 2026-05-08 20:59 | 50.04816 | 8.58724 | 368 ft | 10 kts | 159° |
| 2026-05-08 20:59 | 50.04762 | 8.58764 | 368 ft | 10 kts | 142° |
| 2026-05-08 20:59 | 50.04751 | 8.58873 | 368 ft | 11 kts | 75° |
| 2026-05-08 20:59 | 50.04776 | 8.58978 | 371 ft | 10 kts | 68° |
| 2026-05-08 21:00 | 50.04806 | 8.59076 | 371 ft | 8 kts | 46° |
| 2026-05-08 21:00 | 50.04848 | 8.59066 | 369 ft | 6 kts | 339° |
| 2026-05-08 21:00 | 50.04875 | 8.59049 | 369 ft | 2 kts | 339° |
| 2026-05-08 21:00 | 50.04877 | 8.59048 | 368 ft | 0 kts | 339° |